Terminal Aerodrome Forecast
Issued by NWS

Home | Current Version | Previous Version | Text Only | Print | Product List | Glossary On
Versions: 1 2 3 4 5 6 7 8 9 10 11 12 13 14 15 16 17 18 19 20
000
FTUS41 KAKQ 211746
TAFPHF
TAF
KPHF 211746Z 2118/2218 17009KT P6SM SCT035
     FM220000 20005KT P6SM SCT050
     FM221000 21004KT 5SM BR SCT060
     FM221300 21008KT P6SM SCT090=

USA.gov is the U.S. government's official web portal to all federal, state and local government web resources and services.